West Elkton, Ohio
Current Conditions -  °F | °C
As of 11:15 AM on Thursday 29 Jan 2015 (Local Time) from KMWO Reporting Station
Overcast Overcast  
Wind Chill: 43°   Ceiling: 3900
Heat Index: 49°   Visibility: 10mi
Dew Point: 36°   Wind: 17mph
Humidity: 61%   Direction: 220°SW
Pressure: 29.83"   Gusts: 22mph
Location:  39.59°N, 84.55°W
Report Text: KMWO 291615Z AUTO 22015G19KT 10SM OVC039 10/02 A2983 RMK AO2 T00960024
Loading
Personal Weather Stations






























Interactive Weather Map New forecast layout! Learn more

10-Day Weather Forecast

Advertisements
Track Severe Weather on mobile